Novomar — 5BCT2 — position and weather

sailwx.info

Track history (hours):
 
Tides and Currents Weather Stations Pressure Air Temp Water Temp Dewpoint Dewpoint Depression Visibility Wind Speed Wind Dir Waves Ship Positions

Novomar

Last reported at 2016-Jul-30 15:29 UTC. Time now 2016-Jul-31 01:44 UTC.
Position N 59°06' E 009°38'.

Length 89 m; draft 5.5 m.

Type: Ship. MMSI: 210974000.

Date/timePositionNaut miles runAvg speedWind from/ knotsBaromVisibWave heightAir tempDewpointWater temp
2016-Jul-30 15:29N 59°06' E 009°38'2 0.1
2016-Jul-29 19:32N 59°05' E 009°38'43 8.5
2016-Jul-29 14:28N 58°27' E 010°21'9 9.8
2016-Jul-29 13:33N 58°20' E 010°29'27 9.0
2016-Jul-29 10:32N 57°57' E 010°58'9 8.7
2016-Jul-29 09:33N 57°50' E 011°05'9 9.2
2016-Jul-29 08:33N 57°41' E 011°14'9 8.6
2016-Jul-29 07:33N 57°34' E 011°22'8 8.0
2016-Jul-29 06:33N 57°27' E 011°27'9 9.0
2016-Jul-29 05:33N 57°18' E 011°33'10 9.1
2016-Jul-29 04:31N 57°09' E 011°39'9 9.4
2016-Jul-29 03:33N 57°01' E 011°45'9 8.9
2016-Jul-29 02:33N 56°52' E 011°50'8 8.2
2016-Jul-29 01:33N 56°45' E 011°54'9 8.5
2016-Jul-29 00:33N 56°36' E 011°58'27 8.9
2016-Jul-28 21:33N 56°13' E 012°23'9 8.8
2016-Jul-28 20:33N 56°07' E 012°33'9 8.7
2016-Jul-28 19:33N 55°59' E 012°42'8 8.0
2016-Jul-28 18:33N 55°52' E 012°45'8 8.4
2016-Jul-28 17:33N 55°43' E 012°41'9 8.7
2016-Jul-28 16:33N 55°35' E 012°42'8 8.0
2016-Jul-28 15:33N 55°27' E 012°42'8 8.3
2016-Jul-28 14:33N 55°19' E 012°42'9 8.6
2016-Jul-28 13:33N 55°16' E 012°56'9 8.9
2016-Jul-28 12:30N 55°15' E 013°13'26 9.0
2016-Jul-28 09:33N 55°14' E 013°59'1010.3
2016-Jul-28 08:33N 55°15' E 014°17'1110.7
2016-Jul-28 07:33N 55°23' E 014°30'1110.6
2016-Jul-28 06:33N 55°29' E 014°45'1110.7
2016-Jul-28 05:33N 55°34' E 015°01'  
Track history (hours):
 
Tides and Currents Weather Stations Pressure Air Temp Water Temp Dewpoint Dewpoint Depression Visibility Wind Speed Wind Dir Waves Ship Positions

Novomar

Last reported at 2016-Jul-30 15:29 UTC. Time now 2016-Jul-31 01:44 UTC.
Position N 59°06' E 009°38'.

Length 89 m; draft 5.5 m.

Type: Ship. MMSI: 210974000.

Date/timePositionNaut miles runAvg speedWind from/ knotsBaromVisibWave heightAir tempDewpointWater temp
2016-Jul-30 15:29N 59°06' E 009°38'2 0.1
2016-Jul-29 19:32N 59°05' E 009°38'43 8.5
2016-Jul-29 14:28N 58°27' E 010°21'9 9.8
2016-Jul-29 13:33N 58°20' E 010°29'27 9.0
2016-Jul-29 10:32N 57°57' E 010°58'9 8.7
2016-Jul-29 09:33N 57°50' E 011°05'9 9.2
2016-Jul-29 08:33N 57°41' E 011°14'9 8.6
2016-Jul-29 07:33N 57°34' E 011°22'8 8.0
2016-Jul-29 06:33N 57°27' E 011°27'9 9.0
2016-Jul-29 05:33N 57°18' E 011°33'10 9.1
2016-Jul-29 04:31N 57°09' E 011°39'9 9.4
2016-Jul-29 03:33N 57°01' E 011°45'9 8.9
2016-Jul-29 02:33N 56°52' E 011°50'8 8.2
2016-Jul-29 01:33N 56°45' E 011°54'9 8.5
2016-Jul-29 00:33N 56°36' E 011°58'27 8.9
2016-Jul-28 21:33N 56°13' E 012°23'9 8.8
2016-Jul-28 20:33N 56°07' E 012°33'9 8.7
2016-Jul-28 19:33N 55°59' E 012°42'8 8.0
2016-Jul-28 18:33N 55°52' E 012°45'8 8.4
2016-Jul-28 17:33N 55°43' E 012°41'9 8.7
2016-Jul-28 16:33N 55°35' E 012°42'8 8.0
2016-Jul-28 15:33N 55°27' E 012°42'8 8.3
2016-Jul-28 14:33N 55°19' E 012°42'9 8.6
2016-Jul-28 13:33N 55°16' E 012°56'9 8.9
2016-Jul-28 12:30N 55°15' E 013°13'26 9.0
2016-Jul-28 09:33N 55°14' E 013°59'1010.3
2016-Jul-28 08:33N 55°15' E 014°17'1110.7
2016-Jul-28 07:33N 55°23' E 014°30'1110.6
2016-Jul-28 06:33N 55°29' E 014°45'1110.7
2016-Jul-28 05:33N 55°34' E 015°01'  

Dump ship's entire track history